Atwood, Kentucky
Current Conditions -  °F | °C
As of 5:52 AM on Monday 22 Dec 2014 (Local Time) from KCVG Reporting Station
Overcast Overcast  
Wind Chill: 28°   Ceiling: 4700
Heat Index: 34°   Visibility: 9mi
Dew Point: 25°   Wind: 7mph
Humidity: 70%   Direction: 130°SE
Pressure: 30.01"   Gusts: NA
Location:  38.8354°N, 84.5143°W
Report Text: KCVG 221052Z 13006KT 9SM OVC047 01/M04 A3001 RMK AO2 SLP167 T00111039
Loading
Personal Weather Stations






























Interactive Weather Map New forecast layout! Learn more

10-Day Weather Forecast

Advertisements
Track Severe Weather on mobile